sensor_id;sensor_type;location;lat;lon;timestamp;temperature;humidity
60309;DHT22;50313;52.894;6.492;2023-04-03T00:01:09;2.20;99.90
60309;DHT22;50313;52.894;6.492;2023-04-03T00:03:36;2.10;99.90
60309;DHT22;50313;52.894;6.492;2023-04-03T00:06:02;2.20;99.90
60309;DHT22;50313;52.894;6.492;2023-04-03T00:08:29;2.20;99.90
60309;DHT22;50313;52.894;6.492;2023-04-03T00:10:56;2.20;99.90
60309;DHT22;50313;52.894;6.492;2023-04-03T00:13:23;2.10;99.90
60309;DHT22;50313;52.894;6.492;2023-04-03T00:15:49;2.10;99.90
60309;DHT22;50313;52.894;6.492;2023-04-03T00:18:15;2.00;99.90
60309;DHT22;50313;52.894;6.492;2023-04-03T00:20:41;2.00;99.90
60309;DHT22;50313;52.894;6.492;2023-04-03T00:23:06;2.10;99.90
60309;DHT22;50313;52.894;6.492;2023-04-03T00:25:32;2.00;99.90
60309;DHT22;50313;52.894;6.492;2023-04-03T00:27:58;1.90;99.90
60309;DHT22;50313;52.894;6.492;2023-04-03T00:30:25;1.90;99.90
60309;DHT22;50313;52.894;6.492;2023-04-03T00:32:51;1.90;99.90
60309;DHT22;50313;52.894;6.492;2023-04-03T00:35:18;1.90;99.90
60309;DHT22;50313;52.894;6.492;2023-04-03T00:37:44;1.80;99.90
60309;DHT22;50313;52.894;6.492;2023-04-03T00:40:12;1.80;99.90
60309;DHT22;50313;52.894;6.492;2023-04-03T00:42:40;1.80;99.90
60309;DHT22;50313;52.894;6.492;2023-04-03T00:47:31;1.80;99.90
60309;DHT22;50313;52.894;6.492;2023-04-03T00:49:58;1.70;99.90
60309;DHT22;50313;52.894;6.492;2023-04-03T00:52:27;1.70;99.90
60309;DHT22;50313;52.894;6.492;2023-04-03T00:54:57;1.60;99.90
60309;DHT22;50313;52.894;6.492;2023-04-03T00:57:26;1.70;99.90
60309;DHT22;50313;52.894;6.492;2023-04-03T00:59:56;1.60;99.90
60309;DHT22;50313;52.894;6.492;2023-04-03T01:02:23;1.60;99.90
60309;DHT22;50313;52.894;6.492;2023-04-03T01:04:49;1.70;99.90
60309;DHT22;50313;52.894;6.492;2023-04-03T01:07:29;1.50;99.90
60309;DHT22;50313;52.894;6.492;2023-04-03T01:10:00;1.40;99.90
60309;DHT22;50313;52.894;6.492;2023-04-03T01:12:33;1.50;99.90
60309;DHT22;50313;52.894;6.492;2023-04-03T01:15:03;1.50;99.90
60309;DHT22;50313;52.894;6.492;2023-04-03T01:17:41;1.40;99.90
60309;DHT22;50313;52.894;6.492;2023-04-03T01:28:08;1.40;99.90
60309;DHT22;50313;52.894;6.492;2023-04-03T01:30:44;1.40;99.90
60309;DHT22;50313;52.894;6.492;2023-04-03T01:33:12;1.40;99.90
60309;DHT22;50313;52.894;6.492;2023-04-03T01:35:38;1.30;99.90
60309;DHT22;50313;52.894;6.492;2023-04-03T01:38:04;1.20;99.90
60309;DHT22;50313;52.894;6.492;2023-04-03T01:40:29;1.30;99.90
60309;DHT22;50313;52.894;6.492;2023-04-03T01:42:55;1.30;99.90
60309;DHT22;50313;52.894;6.492;2023-04-03T01:45:21;1.20;99.90
60309;DHT22;50313;52.894;6.492;2023-04-03T01:47:47;1.30;99.90
60309;DHT22;50313;52.894;6.492;2023-04-03T01:50:12;1.30;99.90
60309;DHT22;50313;52.894;6.492;2023-04-03T01:52:41;1.20;99.90
60309;DHT22;50313;52.894;6.492;2023-04-03T01:55:07;1.20;99.90
60309;DHT22;50313;52.894;6.492;2023-04-03T01:57:33;1.10;99.90
60309;DHT22;50313;52.894;6.492;2023-04-03T01:59:58;1.20;99.90
60309;DHT22;50313;52.894;6.492;2023-04-03T02:02:24;1.10;99.90
60309;DHT22;50313;52.894;6.492;2023-04-03T02:04:50;1.10;99.90
60309;DHT22;50313;52.894;6.492;2023-04-03T02:07:16;1.10;99.90
60309;DHT22;50313;52.894;6.492;2023-04-03T02:09:41;1.10;99.90
60309;DHT22;50313;52.894;6.492;2023-04-03T02:12:07;1.10;99.90
60309;DHT22;50313;52.894;6.492;2023-04-03T02:14:33;1.00;99.90
60309;DHT22;50313;52.894;6.492;2023-04-03T02:17:01;1.00;99.90
60309;DHT22;50313;52.894;6.492;2023-04-03T02:19:30;1.00;99.90
60309;DHT22;50313;52.894;6.492;2023-04-03T02:21:59;1.00;99.90
60309;DHT22;50313;52.894;6.492;2023-04-03T02:24:25;1.00;99.90
60309;DHT22;50313;52.894;6.492;2023-04-03T02:26:51;1.00;99.90
60309;DHT22;50313;52.894;6.492;2023-04-03T02:29:17;1.00;99.90
60309;DHT22;50313;52.894;6.492;2023-04-03T02:31:42;1.00;99.90
60309;DHT22;50313;52.894;6.492;2023-04-03T02:34:08;0.90;99.90
60309;DHT22;50313;52.894;6.492;2023-04-03T02:36:34;1.00;99.90
60309;DHT22;50313;52.894;6.492;2023-04-03T02:38:59;0.80;99.90
60309;DHT22;50313;52.894;6.492;2023-04-03T02:41:25;0.90;99.90
60309;DHT22;50313;52.894;6.492;2023-04-03T02:43:59;0.90;99.90
60309;DHT22;50313;52.894;6.492;2023-04-03T02:46:24;0.90;99.90
60309;DHT22;50313;52.894;6.492;2023-04-03T02:48:53;0.80;99.90
60309;DHT22;50313;52.894;6.492;2023-04-03T02:51:18;0.80;99.90
60309;DHT22;50313;52.894;6.492;2023-04-03T02:53:44;0.80;99.90
60309;DHT22;50313;52.894;6.492;2023-04-03T02:56:10;0.80;99.90
60309;DHT22;50313;52.894;6.492;2023-04-03T02:58:35;0.70;99.90
60309;DHT22;50313;52.894;6.492;2023-04-03T03:01:04;0.70;99.90
60309;DHT22;50313;52.894;6.492;2023-04-03T03:03:30;0.70;99.90
60309;DHT22;50313;52.894;6.492;2023-04-03T03:06:11;0.70;99.90
60309;DHT22;50313;52.894;6.492;2023-04-03T03:08:37;0.70;99.90
60309;DHT22;50313;52.894;6.492;2023-04-03T03:11:04;0.60;99.90
60309;DHT22;50313;52.894;6.492;2023-04-03T03:13:31;0.50;99.90
60309;DHT22;50313;52.894;6.492;2023-04-03T03:15:57;0.50;99.90
60309;DHT22;50313;52.894;6.492;2023-04-03T03:18:26;0.40;99.90
60309;DHT22;50313;52.894;6.492;2023-04-03T03:20:55;0.40;99.90
60309;DHT22;50313;52.894;6.492;2023-04-03T03:23:23;0.40;99.90
60309;DHT22;50313;52.894;6.492;2023-04-03T03:25:49;0.20;99.90
60309;DHT22;50313;52.894;6.492;2023-04-03T03:28:19;0.20;99.90
60309;DHT22;50313;52.894;6.492;2023-04-03T03:30:45;0.10;99.90
60309;DHT22;50313;52.894;6.492;2023-04-03T03:33:11;0.10;99.90
60309;DHT22;50313;52.894;6.492;2023-04-03T03:35:36;0.10;99.90
60309;DHT22;50313;52.894;6.492;2023-04-03T03:38:02;0.10;99.90
60309;DHT22;50313;52.894;6.492;2023-04-03T03:40:28;0.10;99.90
60309;DHT22;50313;52.894;6.492;2023-04-03T03:42:53;0.00;99.90
60309;DHT22;50313;52.894;6.492;2023-04-03T03:45:19;0.10;99.90
60309;DHT22;50313;52.894;6.492;2023-04-03T03:47:45;0.00;99.90
60309;DHT22;50313;52.894;6.492;2023-04-03T03:50:11;0.00;99.90
60309;DHT22;50313;52.894;6.492;2023-04-03T03:52:36;0.00;99.90
60309;DHT22;50313;52.894;6.492;2023-04-03T03:55:02;0.00;99.90
60309;DHT22;50313;52.894;6.492;2023-04-03T03:57:28;0.00;99.90
60309;DHT22;50313;52.894;6.492;2023-04-03T03:59:54;-0.10;99.90
60309;DHT22;50313;52.894;6.492;2023-04-03T04:02:20;-0.10;99.90
60309;DHT22;50313;52.894;6.492;2023-04-03T04:04:46;-0.20;99.90
60309;DHT22;50313;52.894;6.492;2023-04-03T04:07:14;-0.20;99.90
60309;DHT22;50313;52.894;6.492;2023-04-03T04:09:40;-0.20;99.90
60309;DHT22;50313;52.894;6.492;2023-04-03T04:12:06;-0.10;99.90
60309;DHT22;50313;52.894;6.492;2023-04-03T04:14:32;-0.20;99.90
60309;DHT22;50313;52.894;6.492;2023-04-03T04:16:57;-0.20;99.90
60309;DHT22;50313;52.894;6.492;2023-04-03T04:19:23;-0.10;99.90
60309;DHT22;50313;52.894;6.492;2023-04-03T04:21:49;-0.30;99.90
60309;DHT22;50313;52.894;6.492;2023-04-03T04:24:15;-0.30;99.90
60309;DHT22;50313;52.894;6.492;2023-04-03T04:26:41;-0.20;99.90
60309;DHT22;50313;52.894;6.492;2023-04-03T04:29:09;-0.30;99.90
60309;DHT22;50313;52.894;6.492;2023-04-03T04:31:35;-0.30;99.90
60309;DHT22;50313;52.894;6.492;2023-04-03T04:34:04;-0.30;99.90
60309;DHT22;50313;52.894;6.492;2023-04-03T04:36:30;-0.20;99.90
60309;DHT22;50313;52.894;6.492;2023-04-03T04:38:55;-0.30;99.90
60309;DHT22;50313;52.894;6.492;2023-04-03T04:41:25;-0.40;99.90
60309;DHT22;50313;52.894;6.492;2023-04-03T04:43:52;-0.40;99.90
60309;DHT22;50313;52.894;6.492;2023-04-03T04:46:21;-0.40;99.90
60309;DHT22;50313;52.894;6.492;2023-04-03T04:48:50;-0.40;99.90
60309;DHT22;50313;52.894;6.492;2023-04-03T04:51:16;-0.40;99.90
60309;DHT22;50313;52.894;6.492;2023-04-03T04:53:44;-0.50;99.90
60309;DHT22;50313;52.894;6.492;2023-04-03T04:56:10;-0.40;99.90
60309;DHT22;50313;52.894;6.492;2023-04-03T04:58:36;-0.50;99.90
60309;DHT22;50313;52.894;6.492;2023-04-03T05:01:04;-0.50;99.90
60309;DHT22;50313;52.894;6.492;2023-04-03T05:03:31;-0.50;99.90
60309;DHT22;50313;52.894;6.492;2023-04-03T05:05:57;-0.50;99.90
60309;DHT22;50313;52.894;6.492;2023-04-03T05:08:26;-0.50;99.90
60309;DHT22;50313;52.894;6.492;2023-04-03T05:10:52;-0.50;99.90
60309;DHT22;50313;52.894;6.492;2023-04-03T05:13:19;-0.50;99.90
60309;DHT22;50313;52.894;6.492;2023-04-03T05:15:45;-0.50;99.90
60309;DHT22;50313;52.894;6.492;2023-04-03T05:18:13;-0.50;99.90
60309;DHT22;50313;52.894;6.492;2023-04-03T05:20:39;-0.40;99.90
60309;DHT22;50313;52.894;6.492;2023-04-03T05:23:08;-0.40;99.90
60309;DHT22;50313;52.894;6.492;2023-04-03T05:25:34;-0.40;99.90
60309;DHT22;50313;52.894;6.492;2023-04-03T05:28:02;-0.30;99.90
60309;DHT22;50313;52.894;6.492;2023-04-03T05:30:28;-0.40;99.90
60309;DHT22;50313;52.894;6.492;2023-04-03T05:32:53;-0.40;99.90
60309;DHT22;50313;52.894;6.492;2023-04-03T05:35:19;-0.40;99.90
60309;DHT22;50313;52.894;6.492;2023-04-03T05:37:45;-0.40;99.90
60309;DHT22;50313;52.894;6.492;2023-04-03T05:40:16;-0.40;99.90
60309;DHT22;50313;52.894;6.492;2023-04-03T05:42:45;-0.30;99.90
60309;DHT22;50313;52.894;6.492;2023-04-03T05:45:11;-0.30;99.90
60309;DHT22;50313;52.894;6.492;2023-04-03T05:47:37;-0.30;99.90
60309;DHT22;50313;52.894;6.492;2023-04-03T05:50:03;-0.20;99.90
60309;DHT22;50313;52.894;6.492;2023-04-03T05:52:35;-0.20;99.90
60309;DHT22;50313;52.894;6.492;2023-04-03T05:55:04;-0.10;99.90
60309;DHT22;50313;52.894;6.492;2023-04-03T05:57:33;-0.10;99.90
60309;DHT22;50313;52.894;6.492;2023-04-03T06:00:19;-0.10;99.90
60309;DHT22;50313;52.894;6.492;2023-04-03T06:02:45;0.00;99.90
60309;DHT22;50313;52.894;6.492;2023-04-03T06:05:10;0.00;99.90
60309;DHT22;50313;52.894;6.492;2023-04-03T06:07:37;0.10;99.90
60309;DHT22;50313;52.894;6.492;2023-04-03T06:10:03;0.20;99.90
60309;DHT22;50313;52.894;6.492;2023-04-03T06:15:34;0.30;99.90
60309;DHT22;50313;52.894;6.492;2023-04-03T06:18:00;0.40;99.90
60309;DHT22;50313;52.894;6.492;2023-04-03T06:20:26;0.50;99.90
60309;DHT22;50313;52.894;6.492;2023-04-03T06:22:58;0.50;99.90
60309;DHT22;50313;52.894;6.492;2023-04-03T06:25:24;0.60;99.90
60309;DHT22;50313;52.894;6.492;2023-04-03T06:27:50;0.70;99.90
60309;DHT22;50313;52.894;6.492;2023-04-03T06:30:16;0.70;99.90
60309;DHT22;50313;52.894;6.492;2023-04-03T06:32:42;0.80;99.90
60309;DHT22;50313;52.894;6.492;2023-04-03T06:35:14;0.90;99.90
60309;DHT22;50313;52.894;6.492;2023-04-03T06:37:49;1.00;99.90
60309;DHT22;50313;52.894;6.492;2023-04-03T06:40:21;1.10;99.90
60309;DHT22;50313;52.894;6.492;2023-04-03T06:42:50;1.30;99.90
60309;DHT22;50313;52.894;6.492;2023-04-03T06:45:16;1.30;99.90
60309;DHT22;50313;52.894;6.492;2023-04-03T06:47:42;1.40;99.90
60309;DHT22;50313;52.894;6.492;2023-04-03T06:50:12;1.50;99.90
60309;DHT22;50313;52.894;6.492;2023-04-03T06:52:42;1.60;99.90
60309;DHT22;50313;52.894;6.492;2023-04-03T06:55:09;1.70;99.90
60309;DHT22;50313;52.894;6.492;2023-04-03T06:57:38;1.70;99.90
60309;DHT22;50313;52.894;6.492;2023-04-03T07:00:07;1.80;99.90
60309;DHT22;50313;52.894;6.492;2023-04-03T07:02:33;2.00;99.90
60309;DHT22;50313;52.894;6.492;2023-04-03T07:04:58;2.00;99.90
60309;DHT22;50313;52.894;6.492;2023-04-03T07:07:24;2.10;99.90
60309;DHT22;50313;52.894;6.492;2023-04-03T07:09:50;2.20;99.90
60309;DHT22;50313;52.894;6.492;2023-04-03T07:12:16;2.30;99.90
60309;DHT22;50313;52.894;6.492;2023-04-03T07:14:42;2.50;99.90
60309;DHT22;50313;52.894;6.492;2023-04-03T07:17:08;2.60;99.90
60309;DHT22;50313;52.894;6.492;2023-04-03T07:19:36;2.70;99.90
60309;DHT22;50313;52.894;6.492;2023-04-03T07:22:04;2.80;99.90
60309;DHT22;50313;52.894;6.492;2023-04-03T07:24:30;2.80;99.90
60309;DHT22;50313;52.894;6.492;2023-04-03T07:26:56;3.00;99.90
60309;DHT22;50313;52.894;6.492;2023-04-03T07:29:25;3.10;99.90
60309;DHT22;50313;52.894;6.492;2023-04-03T07:31:50;3.30;99.90
60309;DHT22;50313;52.894;6.492;2023-04-03T07:34:16;3.50;99.90
60309;DHT22;50313;52.894;6.492;2023-04-03T07:36:42;3.60;99.90
60309;DHT22;50313;52.894;6.492;2023-04-03T07:39:08;3.70;99.90
60309;DHT22;50313;52.894;6.492;2023-04-03T07:41:34;3.80;99.90
60309;DHT22;50313;52.894;6.492;2023-04-03T07:43:59;4.00;99.90
60309;DHT22;50313;52.894;6.492;2023-04-03T07:46:25;4.00;99.90
60309;DHT22;50313;52.894;6.492;2023-04-03T07:48:51;4.00;99.90
60309;DHT22;50313;52.894;6.492;2023-04-03T07:51:17;4.10;99.90
60309;DHT22;50313;52.894;6.492;2023-04-03T07:53:43;4.20;99.90
60309;DHT22;50313;52.894;6.492;2023-04-03T07:56:09;4.30;99.90
60309;DHT22;50313;52.894;6.492;2023-04-03T07:58:35;4.20;99.90
60309;DHT22;50313;52.894;6.492;2023-04-03T08:01:07;4.20;99.90
60309;DHT22;50313;52.894;6.492;2023-04-03T08:03:33;4.50;99.90
60309;DHT22;50313;52.894;6.492;2023-04-03T08:06:04;4.70;99.90
60309;DHT22;50313;52.894;6.492;2023-04-03T08:08:30;4.60;99.90
60309;DHT22;50313;52.894;6.492;2023-04-03T08:11:00;4.80;99.90
60309;DHT22;50313;52.894;6.492;2023-04-03T08:13:29;4.70;99.90
60309;DHT22;50313;52.894;6.492;2023-04-03T08:16:06;4.80;99.90
60309;DHT22;50313;52.894;6.492;2023-04-03T08:18:31;4.90;99.90
60309;DHT22;50313;52.894;6.492;2023-04-03T08:21:11;4.90;98.10
60309;DHT22;50313;52.894;6.492;2023-04-03T08:23:38;5.10;98.00
60309;DHT22;50313;52.894;6.492;2023-04-03T08:26:09;5.10;98.10
60309;DHT22;50313;52.894;6.492;2023-04-03T08:28:35;5.30;99.20
60309;DHT22;50313;52.894;6.492;2023-04-03T08:31:06;5.30;98.20
60309;DHT22;50313;52.894;6.492;2023-04-03T08:33:33;5.40;97.20
60309;DHT22;50313;52.894;6.492;2023-04-03T08:36:03;5.50;97.10
60309;DHT22;50313;52.894;6.492;2023-04-03T08:38:28;5.40;96.20
60309;DHT22;50313;52.894;6.492;2023-04-03T08:44:15;5.70;94.60
60309;DHT22;50313;52.894;6.492;2023-04-03T08:46:56;5.90;94.90
60309;DHT22;50313;52.894;6.492;2023-04-03T08:49:27;5.90;93.80
60309;DHT22;50313;52.894;6.492;2023-04-03T08:51:54;5.90;92.30
60309;DHT22;50313;52.894;6.492;2023-04-03T08:54:34;5.90;92.20
60309;DHT22;50313;52.894;6.492;2023-04-03T08:57:03;5.90;92.80
60309;DHT22;50313;52.894;6.492;2023-04-03T08:59:35;6.00;90.70
60309;DHT22;50313;52.894;6.492;2023-04-03T09:02:43;6.00;90.70
60309;DHT22;50313;52.894;6.492;2023-04-03T09:05:15;6.10;88.60
60309;DHT22;50313;52.894;6.492;2023-04-03T09:07:49;6.20;87.50
60309;DHT22;50313;52.894;6.492;2023-04-03T09:10:24;6.20;84.20
60309;DHT22;50313;52.894;6.492;2023-04-03T09:15:49;6.50;82.70
60309;DHT22;50313;52.894;6.492;2023-04-03T09:18:20;6.50;83.40
60309;DHT22;50313;52.894;6.492;2023-04-03T09:21:08;6.60;82.70
60309;DHT22;50313;52.894;6.492;2023-04-03T09:28:44;6.80;75.60
60309;DHT22;50313;52.894;6.492;2023-04-03T09:31:27;6.80;74.30
60309;DHT22;50313;52.894;6.492;2023-04-03T09:33:57;6.90;78.00
60309;DHT22;50313;52.894;6.492;2023-04-03T09:36:44;7.00;76.80
60309;DHT22;50313;52.894;6.492;2023-04-03T09:39:13;6.90;70.30
60309;DHT22;50313;52.894;6.492;2023-04-03T09:41:40;7.00;71.00
60309;DHT22;50313;52.894;6.492;2023-04-03T09:44:23;7.10;69.60
60309;DHT22;50313;52.894;6.492;2023-04-03T09:46:49;7.20;73.40
60309;DHT22;50313;52.894;6.492;2023-04-03T09:49:15;7.20;69.20
60309;DHT22;50313;52.894;6.492;2023-04-03T09:51:41;7.10;70.60
60309;DHT22;50313;52.894;6.492;2023-04-03T09:56:56;7.40;70.20
60309;DHT22;50313;52.894;6.492;2023-04-03T09:59:23;7.40;68.50
60309;DHT22;50313;52.894;6.492;2023-04-03T10:01:59;7.40;68.80
60309;DHT22;50313;52.894;6.492;2023-04-03T10:04:38;7.60;76.10
60309;DHT22;50313;52.894;6.492;2023-04-03T10:07:45;7.70;73.70
60309;DHT22;50313;52.894;6.492;2023-04-03T10:10:21;7.80;71.20
60309;DHT22;50313;52.894;6.492;2023-04-03T10:13:14;8.00;71.90
60309;DHT22;50313;52.894;6.492;2023-04-03T10:20:54;7.90;66.70
60309;DHT22;50313;52.894;6.492;2023-04-03T10:23:42;8.10;72.40
60309;DHT22;50313;52.894;6.492;2023-04-03T10:31:51;8.00;67.90
60309;DHT22;50313;52.894;6.492;2023-04-03T10:37:19;8.30;68.50
60309;DHT22;50313;52.894;6.492;2023-04-03T10:40:46;8.30;68.00
60309;DHT22;50313;52.894;6.492;2023-04-03T10:46:38;8.40;69.10
60309;DHT22;50313;52.894;6.492;2023-04-03T10:54:29;8.40;64.70
60309;DHT22;50313;52.894;6.492;2023-04-03T10:57:05;8.40;64.30
60309;DHT22;50313;52.894;6.492;2023-04-03T10:59:32;8.60;66.40
60309;DHT22;50313;52.894;6.492;2023-04-03T11:02:07;8.70;64.20
60309;DHT22;50313;52.894;6.492;2023-04-03T11:04:39;8.80;63.50
60309;DHT22;50313;52.894;6.492;2023-04-03T11:07:32;8.80;65.40
60309;DHT22;50313;52.894;6.492;2023-04-03T11:10:03;8.70;63.10
60309;DHT22;50313;52.894;6.492;2023-04-03T11:12:52;8.90;66.30
60309;DHT22;50313;52.894;6.492;2023-04-03T11:15:23;8.80;63.10
60309;DHT22;50313;52.894;6.492;2023-04-03T11:18:22;8.80;63.50
60309;DHT22;50313;52.894;6.492;2023-04-03T11:21:16;9.00;63.50
60309;DHT22;50313;52.894;6.492;2023-04-03T11:23:48;9.00;62.40
60309;DHT22;50313;52.894;6.492;2023-04-03T11:26:26;8.90;62.20
60309;DHT22;50313;52.894;6.492;2023-04-03T11:29:03;9.10;63.50
60309;DHT22;50313;52.894;6.492;2023-04-03T11:31:50;9.20;65.80
60309;DHT22;50313;52.894;6.492;2023-04-03T11:36:59;9.20;63.40
60309;DHT22;50313;52.894;6.492;2023-04-03T11:39:34;9.30;64.10
60309;DHT22;50313;52.894;6.492;2023-04-03T11:47:57;9.30;63.30
60309;DHT22;50313;52.894;6.492;2023-04-03T11:50:43;9.40;64.80
60309;DHT22;50313;52.894;6.492;2023-04-03T11:55:52;9.60;67.20
60309;DHT22;50313;52.894;6.492;2023-04-03T12:01:01;9.70;63.50
60309;DHT22;50313;52.894;6.492;2023-04-03T12:08:47;9.50;61.80
60309;DHT22;50313;52.894;6.492;2023-04-03T12:24:31;10.00;65.20
60309;DHT22;50313;52.894;6.492;2023-04-03T12:35:20;9.50;60.80
60309;DHT22;50313;52.894;6.492;2023-04-03T12:53:52;9.70;59.20
60309;DHT22;50313;52.894;6.492;2023-04-03T12:56:26;9.90;61.00
60309;DHT22;50313;52.894;6.492;2023-04-03T13:06:02;10.00;61.30
60309;DHT22;50313;52.894;6.492;2023-04-03T13:08:29;9.80;60.50
60309;DHT22;50313;52.894;6.492;2023-04-03T13:11:04;9.80;61.20
60309;DHT22;50313;52.894;6.492;2023-04-03T13:13:31;9.90;60.60
60309;DHT22;50313;52.894;6.492;2023-04-03T13:16:00;9.90;60.50
60309;DHT22;50313;52.894;6.492;2023-04-03T13:18:36;10.10;62.90
60309;DHT22;50313;52.894;6.492;2023-04-03T13:21:21;10.10;60.90
60309;DHT22;50313;52.894;6.492;2023-04-03T13:23:51;10.20;59.70
60309;DHT22;50313;52.894;6.492;2023-04-03T13:26:18;10.00;59.00
60309;DHT22;50313;52.894;6.492;2023-04-03T13:28:48;10.00;58.80
60309;DHT22;50313;52.894;6.492;2023-04-03T13:31:28;10.00;59.50
60309;DHT22;50313;52.894;6.492;2023-04-03T13:34:10;10.10;61.50
60309;DHT22;50313;52.894;6.492;2023-04-03T13:36:41;10.40;64.30
60309;DHT22;50313;52.894;6.492;2023-04-03T13:39:40;10.20;58.00
60309;DHT22;50313;52.894;6.492;2023-04-03T13:42:28;10.20;58.40
60309;DHT22;50313;52.894;6.492;2023-04-03T13:45:21;10.20;58.10
60309;DHT22;50313;52.894;6.492;2023-04-03T13:47:49;10.20;58.10
60309;DHT22;50313;52.894;6.492;2023-04-03T13:50:21;10.30;58.00
60309;DHT22;50313;52.894;6.492;2023-04-03T13:52:52;10.40;58.90
60309;DHT22;50313;52.894;6.492;2023-04-03T13:55:20;10.60;62.00
60309;DHT22;50313;52.894;6.492;2023-04-03T13:58:22;10.70;61.10
60309;DHT22;50313;52.894;6.492;2023-04-03T14:00:54;10.60;57.50
60309;DHT22;50313;52.894;6.492;2023-04-03T14:03:40;10.70;59.00
60309;DHT22;50313;52.894;6.492;2023-04-03T14:06:11;11.10;60.00
60309;DHT22;50313;52.894;6.492;2023-04-03T14:08:57;11.20;59.60
60309;DHT22;50313;52.894;6.492;2023-04-03T14:11:32;10.80;56.30
60309;DHT22;50313;52.894;6.492;2023-04-03T14:14:09;11.20;57.80
60309;DHT22;50313;52.894;6.492;2023-04-03T14:16:41;11.40;57.40
60309;DHT22;50313;52.894;6.492;2023-04-03T14:19:19;11.20;58.10
60309;DHT22;50313;52.894;6.492;2023-04-03T14:21:48;11.20;56.30
60309;DHT22;50313;52.894;6.492;2023-04-03T14:24:16;11.20;56.30
60309;DHT22;50313;52.894;6.492;2023-04-03T14:26:47;11.30;54.70
60309;DHT22;50313;52.894;6.492;2023-04-03T14:29:15;11.20;56.60
60309;DHT22;50313;52.894;6.492;2023-04-03T14:31:45;11.20;55.60
60309;DHT22;50313;52.894;6.492;2023-04-03T14:34:26;11.40;56.00
60309;DHT22;50313;52.894;6.492;2023-04-03T14:36:53;11.60;55.70
60309;DHT22;50313;52.894;6.492;2023-04-03T14:39:20;11.80;57.70
60309;DHT22;50313;52.894;6.492;2023-04-03T14:41:49;11.70;54.30
60309;DHT22;50313;52.894;6.492;2023-04-03T14:44:15;11.60;55.10
60309;DHT22;50313;52.894;6.492;2023-04-03T14:46:43;11.70;53.80
60309;DHT22;50313;52.894;6.492;2023-04-03T14:49:21;12.10;55.10
60309;DHT22;50313;52.894;6.492;2023-04-03T14:51:58;12.10;53.10
60309;DHT22;50313;52.894;6.492;2023-04-03T14:54:27;12.10;53.90
60309;DHT22;50313;52.894;6.492;2023-04-03T14:57:05;12.20;53.50
60309;DHT22;50313;52.894;6.492;2023-04-03T14:59:54;12.10;54.20
60309;DHT22;50313;52.894;6.492;2023-04-03T15:02:30;12.20;53.20
60309;DHT22;50313;52.894;6.492;2023-04-03T15:05:03;12.30;52.40
60309;DHT22;50313;52.894;6.492;2023-04-03T15:07:34;12.40;52.80
60309;DHT22;50313;52.894;6.492;2023-04-03T15:10:30;12.60;52.60
60309;DHT22;50313;52.894;6.492;2023-04-03T15:13:08;12.70;52.40
60309;DHT22;50313;52.894;6.492;2023-04-03T15:15:48;12.60;53.00
60309;DHT22;50313;52.894;6.492;2023-04-03T15:18:23;12.60;51.10
60309;DHT22;50313;52.894;6.492;2023-04-03T15:21:09;12.80;52.40
60309;DHT22;50313;52.894;6.492;2023-04-03T15:23:38;12.90;49.70
60309;DHT22;50313;52.894;6.492;2023-04-03T15:26:11;12.50;49.70
60309;DHT22;50313;52.894;6.492;2023-04-03T15:28:42;12.30;50.30
60309;DHT22;50313;52.894;6.492;2023-04-03T15:31:13;12.50;51.10
60309;DHT22;50313;52.894;6.492;2023-04-03T15:34:09;12.50;51.60
60309;DHT22;50313;52.894;6.492;2023-04-03T15:36:42;12.80;49.50
60309;DHT22;50313;52.894;6.492;2023-04-03T15:39:08;12.90;49.90
60309;DHT22;50313;52.894;6.492;2023-04-03T15:41:34;12.80;49.70
60309;DHT22;50313;52.894;6.492;2023-04-03T15:44:02;12.60;49.70
60309;DHT22;50313;52.894;6.492;2023-04-03T15:46:32;12.60;50.40
60309;DHT22;50313;52.894;6.492;2023-04-03T15:49:01;12.90;49.80
60309;DHT22;50313;52.894;6.492;2023-04-03T15:51:30;13.30;50.90
60309;DHT22;50313;52.894;6.492;2023-04-03T15:53:58;13.50;50.30
60309;DHT22;50313;52.894;6.492;2023-04-03T15:56:24;13.10;49.60
60309;DHT22;50313;52.894;6.492;2023-04-03T15:58:50;13.00;49.40
60309;DHT22;50313;52.894;6.492;2023-04-03T16:01:25;13.10;51.10
60309;DHT22;50313;52.894;6.492;2023-04-03T16:03:51;12.90;50.40
60309;DHT22;50313;52.894;6.492;2023-04-03T16:06:19;13.20;50.30
60309;DHT22;50313;52.894;6.492;2023-04-03T16:08:45;13.00;49.90
60309;DHT22;50313;52.894;6.492;2023-04-03T16:11:14;13.10;49.70
60309;DHT22;50313;52.894;6.492;2023-04-03T16:13:40;13.40;50.40
60309;DHT22;50313;52.894;6.492;2023-04-03T16:16:08;13.20;49.40
60309;DHT22;50313;52.894;6.492;2023-04-03T16:18:37;13.30;49.50
60309;DHT22;50313;52.894;6.492;2023-04-03T16:21:03;13.10;48.30
60309;DHT22;50313;52.894;6.492;2023-04-03T16:23:37;13.30;49.70
60309;DHT22;50313;52.894;6.492;2023-04-03T16:26:10;13.00;48.30
60309;DHT22;50313;52.894;6.492;2023-04-03T16:28:36;13.40;49.40
60309;DHT22;50313;52.894;6.492;2023-04-03T16:31:07;13.80;48.90
60309;DHT22;50313;52.894;6.492;2023-04-03T16:33:34;13.60;48.00
60309;DHT22;50313;52.894;6.492;2023-04-03T16:36:11;13.50;47.30
60309;DHT22;50313;52.894;6.492;2023-04-03T16:38:49;13.30;47.60
60309;DHT22;50313;52.894;6.492;2023-04-03T16:41:15;13.40;47.60
60309;DHT22;50313;52.894;6.492;2023-04-03T16:43:44;13.00;47.20
60309;DHT22;50313;52.894;6.492;2023-04-03T16:46:12;12.90;47.30
60309;DHT22;50313;52.894;6.492;2023-04-03T16:48:43;12.60;47.50
60309;DHT22;50313;52.894;6.492;2023-04-03T16:51:12;12.70;48.40
60309;DHT22;50313;52.894;6.492;2023-04-03T16:53:41;13.00;48.90
60309;DHT22;50313;52.894;6.492;2023-04-03T16:56:16;13.40;47.80
60309;DHT22;50313;52.894;6.492;2023-04-03T16:58:42;13.30;48.30
60309;DHT22;50313;52.894;6.492;2023-04-03T17:01:21;12.80;48.30
60309;DHT22;50313;52.894;6.492;2023-04-03T17:04:03;13.30;48.50
60309;DHT22;50313;52.894;6.492;2023-04-03T17:06:37;12.80;48.30
60309;DHT22;50313;52.894;6.492;2023-04-03T17:09:06;13.20;48.80
60309;DHT22;50313;52.894;6.492;2023-04-03T17:11:43;12.60;48.90
60309;DHT22;50313;52.894;6.492;2023-04-03T17:14:13;12.40;49.00
60309;DHT22;50313;52.894;6.492;2023-04-03T17:16:56;12.30;48.40
60309;DHT22;50313;52.894;6.492;2023-04-03T17:19:22;11.90;50.20
60309;DHT22;50313;52.894;6.492;2023-04-03T17:21:51;11.40;50.50
60309;DHT22;50313;52.894;6.492;2023-04-03T17:24:17;11.00;51.70
60309;DHT22;50313;52.894;6.492;2023-04-03T17:26:42;10.30;52.20
60309;DHT22;50313;52.894;6.492;2023-04-03T17:29:11;9.90;52.30
60309;DHT22;50313;52.894;6.492;2023-04-03T17:31:39;9.70;52.80
60309;DHT22;50313;52.894;6.492;2023-04-03T17:34:11;9.40;53.90
60309;DHT22;50313;52.894;6.492;2023-04-03T17:36:39;9.20;54.80
60309;DHT22;50313;52.894;6.492;2023-04-03T17:39:09;9.00;55.00
60309;DHT22;50313;52.894;6.492;2023-04-03T17:41:35;8.70;56.60
60309;DHT22;50313;52.894;6.492;2023-04-03T17:44:01;8.60;57.60
60309;DHT22;50313;52.894;6.492;2023-04-03T17:46:34;8.40;57.60
60309;DHT22;50313;52.894;6.492;2023-04-03T17:49:00;8.20;59.00
60309;DHT22;50313;52.894;6.492;2023-04-03T17:51:27;8.10;58.90
60309;DHT22;50313;52.894;6.492;2023-04-03T17:53:53;8.00;60.70